Time;durP1;ratioP1;P1;durP2;ratioP2;P2;SDS_P1;SDS_P2;PMS_P1;PMS_P2;Temp;Humidity;BMP_temperature;BMP_pressure;BME280_temperature;BME280_humidity;BME280_pressure;Samples;Min_cycle;Max_cycle;Signal;HPM_P1;HPM_P2
2023/07/06 00:01:22;;;;;;;24.05;21.98;;;17.70;99.90;;;;;;5029800;28;20041;-58
2023/07/06 00:03:49;;;;;;;23.58;21.67;;;17.60;99.90;;;;;;5029950;28;20049;-58
2023/07/06 00:06:15;;;;;;;26.00;23.80;;;17.60;99.90;;;;;;5041441;28;20151;-58
2023/07/06 00:08:40;;;;;;;26.70;24.05;;;17.70;99.90;;;;;;5051511;28;20041;-58
2023/07/06 00:11:06;;;;;;;27.33;24.77;;;17.50;1.00;;;;;;5028747;28;20511;-58
2023/07/06 00:13:32;;;;;;;27.35;24.48;;;17.60;1.00;;;;;;5013959;28;20408;-58
2023/07/06 00:16:01;;;;;;;27.40;25.05;;;17.50;21.90;;;;;;5039642;28;20029;-58
2023/07/06 00:18:27;;;;;;;28.13;25.63;;;17.60;99.90;;;;;;5053742;28;20033;-58
2023/07/06 00:20:53;;;;;;;29.80;27.02;;;17.50;99.90;;;;;;5037384;28;20034;-58
2023/07/06 00:23:20;;;;;;;31.25;28.35;;;17.50;99.90;;;;;;5033786;28;20042;-58
2023/07/06 00:25:47;;;;;;;28.40;25.95;;;17.50;1.00;;;;;;5040570;28;20544;-58
2023/07/06 00:28:14;;;;;;;29.77;27.05;;;17.50;69.30;;;;;;5053257;28;20040;-58
2023/07/06 00:30:53;;;;;;;30.45;27.95;;;17.60;99.90;;;;;;5039567;28;20446;-58
2023/07/06 00:33:19;;;;;;;30.02;27.48;;;17.50;99.90;;;;;;5033637;28;20037;-58
2023/07/06 00:35:46;;;;;;;29.35;26.85;;;17.60;1.00;;;;;;5037528;28;20051;-58
2023/07/06 00:38:17;;;;;;;31.15;28.20;;;17.60;99.90;;;;;;5053415;28;20041;-58
2023/07/06 00:40:46;;;;;;;31.67;28.88;;;17.50;99.90;;;;;;5039372;28;20083;-58
2023/07/06 00:43:17;;;;;;;32.60;29.48;;;17.60;1.00;;;;;;5033380;28;20057;-58
2023/07/06 00:45:45;;;;;;;32.42;29.50;;;17.40;99.90;;;;;;5035227;28;20269;-58
2023/07/06 00:48:21;;;;;;;32.90;29.88;;;17.50;1.00;;;;;;5052919;28;20047;-58
2023/07/06 00:50:59;;;;;;;36.63;29.17;;;17.50;99.90;;;;;;5039076;28;20121;-57
2023/07/06 00:53:29;;;;;;;32.28;29.23;;;17.40;1.00;;;;;;5048553;28;20041;-58
2023/07/06 00:55:58;;;;;;;31.85;28.98;;;17.50;99.90;;;;;;5035667;28;20040;-58
2023/07/06 00:58:28;;;;;;;32.80;29.55;;;17.40;99.90;;;;;;5052931;28;20225;-57
2023/07/06 01:00:58;;;;;;;32.65;29.83;;;17.40;26.40;;;;;;5038305;28;20077;-58
2023/07/06 01:03:24;;;;;;;33.58;30.42;;;17.50;99.90;;;;;;5033001;28;20037;-58
2023/07/06 01:05:59;;;;;;;32.28;29.23;;;17.50;99.90;;;;;;5034630;28;20041;-58
2023/07/06 01:08:25;;;;;;;33.35;30.00;;;17.60;1.00;;;;;;5052208;28;20049;-57
2023/07/06 01:10:54;;;;;;;33.38;30.23;;;17.40;92.20;;;;;;5030920;28;20041;-58
2023/07/06 01:13:24;;;;;;;30.58;28.05;;;17.50;99.90;;;;;;5032674;28;20129;-58
2023/07/06 01:15:57;;;;;;;32.20;29.17;;;17.40;99.90;;;;;;5034460;28;20052;-58
2023/07/06 01:18:35;;;;;;;34.47;29.83;;;17.40;99.90;;;;;;5067781;28;20052;-58
2023/07/06 01:21:06;;;;;;;32.13;29.23;;;17.40;99.90;;;;;;5037095;28;20369;-58
2023/07/06 01:23:52;;;;;;;28.65;26.15;;;17.60;99.90;;;;;;5032626;28;20084;-58
2023/07/06 01:26:49;;;;;;;29.40;26.80;;;17.50;99.90;;;;;;5037940;28;20076;-57
2023/07/06 01:29:21;;;;;;;27.70;25.50;;;17.50;99.90;;;;;;5052165;28;20457;-58
2023/07/06 01:31:57;;;;;;;26.48;24.27;;;17.60;99.90;;;;;;5032657;28;20470;-58
2023/07/06 01:34:53;;;;;;;28.35;25.70;;;17.50;99.90;;;;;;5032493;28;20415;-58
2023/07/06 01:37:29;;;;;;;28.05;25.42;;;17.70;99.90;;;;;;5045990;28;20040;-58
2023/07/06 01:39:57;;;;;;;30.52;27.83;;;17.60;99.90;;;;;;5047743;28;20037;-58
2023/07/06 01:42:29;;;;;;;28.02;25.73;;;17.60;99.90;;;;;;5032245;28;20103;-58
2023/07/06 01:45:03;;;;;;;31.95;28.90;;;17.60;99.90;;;;;;5032111;28;20056;-58
2023/07/06 01:47:31;;;;;;;32.50;29.60;;;17.30;99.90;;;;;;5046709;28;20041;-57
2023/07/06 01:50:01;;;;;;;32.65;30.02;;;17.20;99.90;;;;;;5048121;28;20038;-58
2023/07/06 01:52:34;;;;;;;34.08;30.98;;;17.30;99.90;;;;;;5031946;28;20462;-57
2023/07/06 01:55:09;;;;;;;35.70;32.53;;;17.10;99.90;;;;;;5031658;28;20045;-58
2023/07/06 01:57:42;;;;;;;36.78;33.47;;;17.20;99.90;;;;;;5046716;28;20509;-58
2023/07/06 02:00:12;;;;;;;36.35;33.35;;;17.00;99.90;;;;;;5047837;28;20072;-57
2023/07/06 02:02:39;;;;;;;36.92;33.50;;;16.90;99.90;;;;;;5051767;28;20064;-58
2023/07/06 02:05:05;;;;;;;36.97;33.67;;;16.80;99.90;;;;;;5063314;28;20073;-58
2023/07/06 02:07:33;;;;;;;37.00;33.70;;;16.80;99.90;;;;;;5046403;28;20043;-57
2023/07/06 02:09:58;;;;;;;37.22;33.92;;;16.90;99.90;;;;;;5044912;28;20025;-58
2023/07/06 02:12:24;;;;;;;38.75;35.33;;;16.90;99.90;;;;;;5031262;28;20124;-58
2023/07/06 02:14:49;;;;;;;37.80;34.28;;;16.70;99.90;;;;;;5031409;28;20123;-58
2023/07/06 02:17:15;;;;;;;36.60;33.45;;;16.70;99.90;;;;;;5044190;28;20033;-58
2023/07/06 02:19:42;;;;;;;36.42;32.92;;;16.70;99.90;;;;;;5051341;28;20514;-58
2023/07/06 02:22:08;;;;;;;37.53;34.03;;;16.50;99.90;;;;;;5029964;28;20487;-57
2023/07/06 02:24:34;;;;;;;37.25;33.97;;;16.80;99.90;;;;;;5031619;28;20116;-58
2023/07/06 02:26:59;;;;;;;37.05;33.95;;;16.80;99.90;;;;;;5041045;28;20087;-57
2023/07/06 02:29:25;;;;;;;37.17;33.70;;;16.60;99.90;;;;;;5037801;28;20049;-58
2023/07/06 02:31:51;;;;;;;38.60;34.80;;;17.10;99.90;;;;;;5030995;28;20045;-58
2023/07/06 02:34:24;;;;;;;38.95;35.78;;;16.40;99.90;;;;;;5046195;28;20037;-58
2023/07/06 02:36:54;;;;;;;37.40;34.28;;;16.60;99.90;;;;;;5039643;28;20063;-58
2023/07/06 02:39:24;;;;;;;37.35;33.58;;;16.60;99.90;;;;;;5038687;28;20492;-58
2023/07/06 02:41:58;;;;;;;36.95;33.67;;;16.40;99.90;;;;;;5030970;28;20122;-58
2023/07/06 02:44:24;;;;;;;37.45;34.08;;;16.70;99.90;;;;;;5030640;28;20423;-58
2023/07/06 02:46:50;;;;;;;37.03;33.75;;;16.50;99.90;;;;;;5036312;28;20045;-57
2023/07/06 02:49:16;;;;;;;36.53;33.40;;;16.40;99.90;;;;;;5040055;28;20136;-57
2023/07/06 02:51:42;;;;;;;38.28;34.88;;;16.30;99.90;;;;;;5030964;28;20139;-57
2023/07/06 02:54:12;;;;;;;38.72;35.33;;;16.70;99.90;;;;;;5030576;28;20045;-58
2023/07/06 02:56:38;;;;;;;36.97;33.70;;;17.10;99.90;;;;;;5031031;28;20124;-58
2023/07/06 02:59:04;;;;;;;36.95;33.53;;;16.90;99.90;;;;;;5041475;28;20145;-58
2023/07/06 03:01:29;;;;;;;36.63;33.15;;;16.60;99.90;;;;;;5030851;28;20099;-58
2023/07/06 03:03:55;;;;;;;37.75;34.42;;;17.00;99.90;;;;;;5030392;28;20112;-58
2023/07/06 03:06:20;;;;;;;38.20;34.65;;;16.70;99.90;;;;;;5030486;28;20059;-58
2023/07/06 03:08:47;;;;;;;36.00;33.00;;;16.70;99.90;;;;;;5044891;28;20041;-58
2023/07/06 03:11:14;;;;;;;38.35;35.15;;;17.20;99.90;;;;;;5027223;28;20084;-58
2023/07/06 03:13:40;;;;;;;37.00;33.30;;;17.30;99.90;;;;;;5029415;28;20087;-58
2023/07/06 03:16:07;;;;;;;36.70;33.58;;;17.30;99.90;;;;;;5029174;28;20049;-58
2023/07/06 03:18:33;;;;;;;36.58;33.05;;;16.90;99.90;;;;;;5025339;28;20037;-58
2023/07/06 03:20:58;;;;;;;35.25;31.98;;;17.10;99.90;;;;;;5031512;28;20065;-58
2023/07/06 03:23:24;;;;;;;35.63;32.53;;;17.40;99.90;;;;;;5027511;28;20042;-58
2023/07/06 03:25:51;;;;;;;37.85;34.22;;;17.10;99.90;;;;;;5030122;28;20041;-58
2023/07/06 03:28:18;;;;;;;37.58;33.92;;;17.50;99.90;;;;;;5043616;28;20128;-58
2023/07/06 03:30:43;;;;;;;37.28;33.78;;;17.00;99.90;;;;;;5030399;28;20111;-58
2023/07/06 03:33:09;;;;;;;38.53;34.53;;;17.10;99.90;;;;;;5030569;28;20053;-58
2023/07/06 03:35:40;;;;;;;41.47;35.47;;;17.10;99.90;;;;;;5029824;28;20049;-58
2023/07/06 03:38:07;;;;;;;37.90;34.33;;;16.90;99.90;;;;;;5042507;28;20087;-57
2023/07/06 03:40:32;;;;;;;38.67;35.00;;;17.40;99.90;;;;;;5031026;28;20399;-58
2023/07/06 03:42:58;;;;;;;37.78;34.28;;;17.30;99.90;;;;;;5029492;28;20068;-57
2023/07/06 03:45:24;;;;;;;37.40;33.97;;;16.90;99.90;;;;;;5030357;28;20045;-58
2023/07/06 03:47:50;;;;;;;39.15;35.40;;;17.30;99.90;;;;;;5040615;28;20128;-57
2023/07/06 03:50:18;;;;;;;39.25;35.30;;;17.20;99.90;;;;;;5032980;28;20041;-57
2023/07/06 03:52:44;;;;;;;38.83;35.22;;;17.10;99.90;;;;;;5045427;28;20053;-58
2023/07/06 03:55:16;;;;;;;37.63;34.15;;;16.60;99.90;;;;;;5029745;28;20647;-58
2023/07/06 03:57:45;;;;;;;37.60;34.10;;;16.50;99.90;;;;;;5069097;28;20411;-57
2023/07/06 04:00:22;;;;;;;37.50;34.08;;;16.40;99.90;;;;;;5035136;28;20041;-58
2023/07/06 04:03:00;;;;;;;38.35;34.50;;;16.80;99.90;;;;;;5061778;28;20079;-58
2023/07/06 04:05:38;;;;;;;38.53;35.10;;;16.30;99.90;;;;;;5029634;28;20403;-58
2023/07/06 04:08:09;;;;;;;38.97;35.15;;;16.30;99.90;;;;;;5041514;28;20045;-58
2023/07/06 04:10:37;;;;;;;39.05;35.55;;;16.30;99.90;;;;;;5029284;28;20040;-58
2023/07/06 04:13:04;;;;;;;38.63;34.90;;;16.70;99.90;;;;;;5048879;28;20049;-57
2023/07/06 04:15:31;;;;;;;39.58;35.83;;;16.20;99.90;;;;;;5033305;28;20041;-58
2023/07/06 04:17:56;;;;;;;40.00;35.65;;;16.60;99.90;;;;;;5039677;28;20049;-58
2023/07/06 04:20:24;;;;;;;41.28;37.05;;;16.50;99.90;;;;;;5034205;28;20526;-58
2023/07/06 04:22:54;;;;;;;40.17;35.90;;;16.60;99.90;;;;;;5028380;28;20048;-58
2023/07/06 04:25:22;;;;;;;39.55;35.70;;;16.60;99.90;;;;;;5029642;28;20052;-58
2023/07/06 04:27:48;;;;;;;40.22;36.33;;;16.70;99.90;;;;;;5038532;28;20124;-58
2023/07/06 04:30:15;;;;;;;41.05;37.00;;;16.40;99.90;;;;;;5035963;28;20049;-57
2023/07/06 04:32:48;;;;;;;39.72;35.85;;;16.80;99.90;;;;;;5029477;28;20037;-58
2023/07/06 04:35:16;;;;;;;39.75;35.67;;;16.80;99.90;;;;;;5029328;28;20033;-58
2023/07/06 04:37:43;;;;;;;41.95;36.80;;;16.30;99.90;;;;;;5037580;28;20041;-58
2023/07/06 04:40:13;;;;;;;43.05;38.35;;;16.60;99.90;;;;;;5048152;28;20497;-58
2023/07/06 04:42:40;;;;;;;40.92;36.90;;;17.00;99.90;;;;;;5048952;28;20064;-58
2023/07/06 04:45:11;;;;;;;40.20;36.47;;;17.00;99.90;;;;;;5037785;28;20064;-58
2023/07/06 04:47:39;;;;;;;41.92;37.58;;;17.10;99.90;;;;;;5036275;28;20045;-58
2023/07/06 04:50:09;;;;;;;42.30;38.08;;;16.80;99.90;;;;;;5038178;28;20069;-58
2023/07/06 04:52:37;;;;;;;41.03;36.75;;;17.60;99.90;;;;;;5029422;28;20045;-58
2023/07/06 04:55:10;;;;;;;44.10;37.10;;;17.30;99.90;;;;;;5029757;28;20065;-58
2023/07/06 04:57:36;;;;;;;39.35;35.22;;;17.10;99.90;;;;;;5036925;28;20390;-58
2023/07/06 05:00:17;;;;;;;43.33;36.00;;;17.20;99.90;;;;;;5039299;28;20033;-58
2023/07/06 05:02:46;;;;;;;41.28;36.85;;;18.00;99.90;;;;;;5032917;28;20040;-58
2023/07/06 05:05:17;;;;;;;41.20;36.13;;;18.10;99.90;;;;;;5032665;28;20041;-58
2023/07/06 05:07:43;;;;;;;39.83;35.65;;;17.80;99.90;;;;;;5035641;28;20080;-58
2023/07/06 05:10:09;;;;;;;43.47;34.15;;;18.30;99.90;;;;;;5048387;28;20079;-58
2023/07/06 05:12:35;;;;;;;40.28;36.08;;;17.80;99.90;;;;;;5047767;28;20055;-58
2023/07/06 05:15:02;;;;;;;40.33;36.28;;;17.80;99.90;;;;;;5043276;28;20048;-58
2023/07/06 05:17:28;;;;;;;43.85;35.95;;;18.60;99.90;;;;;;5033559;28;20033;-58
2023/07/06 05:19:53;;;;;;;40.10;35.42;;;18.00;99.90;;;;;;5042982;28;20053;-59
2023/07/06 05:22:19;;;;;;;44.50;35.30;;;18.00;99.90;;;;;;5032633;28;20068;-58
2023/07/06 05:24:45;;;;;;;42.10;34.67;;;18.40;99.90;;;;;;5032348;28;20041;-59
2023/07/06 05:27:11;;;;;;;43.72;35.08;;;18.20;99.90;;;;;;5032509;28;20094;-58
2023/07/06 05:29:37;;;;;;;41.20;33.95;;;19.00;99.90;;;;;;5045466;28;20483;-59
2023/07/06 05:32:03;;;;;;;42.30;34.22;;;18.40;99.90;;;;;;5032547;28;20045;-58
2023/07/06 05:34:29;;;;;;;36.80;32.78;;;18.40;99.90;;;;;;5032421;28;20487;-59
2023/07/06 05:36:55;;;;;;;37.97;32.75;;;18.50;99.90;;;;;;5032050;28;20491;-58
2023/07/06 05:39:20;;;;;;;38.00;31.50;;;18.70;99.90;;;;;;5045795;28;20045;-58
2023/07/06 05:41:47;;;;;;;36.63;32.60;;;18.70;99.90;;;;;;5032149;28;20392;-58
2023/07/06 05:44:13;;;;;;;35.47;31.67;;;18.70;99.90;;;;;;5030484;28;20068;-58
2023/07/06 05:46:39;;;;;;;37.25;33.00;;;18.90;99.90;;;;;;5027574;28;20033;-58
2023/07/06 05:49:05;;;;;;;43.08;33.63;;;18.80;99.90;;;;;;5039205;28;20395;-58
2023/07/06 05:51:30;;;;;;;34.80;31.23;;;19.30;99.90;;;;;;5032260;28;20053;-58
2023/07/06 05:53:57;;;;;;;36.13;31.60;;;19.20;99.90;;;;;;5031980;28;20043;-58
2023/07/06 05:56:23;;;;;;;37.83;30.83;;;19.10;99.90;;;;;;5030492;28;20103;-58
2023/07/06 05:58:49;;;;;;;32.40;29.33;;;19.30;99.90;;;;;;5042489;28;20041;-59
2023/07/06 06:01:16;;;;;;;31.77;28.83;;;19.30;99.90;;;;;;5048797;28;20084;-58
2023/07/06 06:03:42;;;;;;;34.00;29.55;;;19.50;99.90;;;;;;5050630;28;20037;-58
2023/07/06 06:06:08;;;;;;;32.97;29.67;;;19.50;99.90;;;;;;5035935;28;20045;-59
2023/07/06 06:08:33;;;;;;;31.02;27.80;;;19.50;99.90;;;;;;5039966;28;20098;-58
2023/07/06 06:11:00;;;;;;;33.95;30.50;;;19.50;99.90;;;;;;5029194;28;20117;-58
2023/07/06 06:13:27;;;;;;;34.38;30.83;;;19.40;99.90;;;;;;5025083;28;20046;-58
2023/07/06 06:15:53;;;;;;;37.45;30.95;;;19.70;99.90;;;;;;5023407;28;20268;-59
2023/07/06 06:18:18;;;;;;;32.63;28.90;;;19.70;99.90;;;;;;5037416;28;20034;-59
2023/07/06 06:20:44;;;;;;;30.65;27.70;;;19.80;99.90;;;;;;5031390;28;20092;-59
2023/07/06 06:23:11;;;;;;;29.75;27.00;;;19.80;99.90;;;;;;5031484;28;20087;-59
2023/07/06 06:25:40;;;;;;;30.35;25.73;;;19.70;99.90;;;;;;5016173;28;20120;-60
2023/07/06 06:28:09;;;;;;;26.23;23.80;;;19.90;99.90;;;;;;5039463;28;20123;-59
2023/07/06 06:30:37;;;;;;;27.52;24.90;;;19.80;99.90;;;;;;5057942;28;20039;-58
2023/07/06 06:33:03;;;;;;;29.50;26.90;;;19.90;99.90;;;;;;5045205;28;20041;-60
2023/07/06 06:35:29;;;;;;;30.92;27.83;;;19.90;99.90;;;;;;5031368;28;20111;-59
2023/07/06 06:37:57;;;;;;;31.17;28.20;;;20.00;99.90;;;;;;5036030;28;20037;-59
2023/07/06 06:40:24;;;;;;;32.67;28.20;;;19.90;99.90;;;;;;5044647;28;20052;-59
2023/07/06 06:42:50;;;;;;;30.73;27.55;;;20.00;99.90;;;;;;5039650;28;20474;-59
2023/07/06 06:45:18;;;;;;;27.65;24.95;;;20.00;99.90;;;;;;5029782;28;20045;-59
2023/07/06 06:47:44;;;;;;;29.50;26.88;;;20.00;1.00;;;;;;5035017;28;20060;-59
2023/07/06 06:50:13;;;;;;;28.02;25.05;;;20.20;99.90;;;;;;5050651;28;20041;-59
2023/07/06 06:52:40;;;;;;;29.88;26.98;;;20.20;25.70;;;;;;5045027;28;20040;-59
2023/07/06 06:55:06;;;;;;;26.40;23.85;;;20.40;99.90;;;;;;5049639;28;20040;-59
2023/07/06 06:57:32;;;;;;;27.23;24.75;;;20.40;96.70;;;;;;5048592;28;20045;-59
2023/07/06 06:59:58;;;;;;;28.10;23.95;;;20.60;1.00;;;;;;5048686;28;20538;-59
2023/07/06 07:02:23;;;;;;;26.83;24.40;;;20.50;79.30;;;;;;5049875;28;20074;-59
2023/07/06 07:04:49;;;;;;;24.58;22.48;;;20.70;99.90;;;;;;5041963;28;20041;-60
2023/07/06 07:07:16;;;;;;;25.20;23.00;;;20.70;1.00;;;;;;5050507;28;20045;-59
2023/07/06 07:09:41;;;;;;;24.60;22.15;;;20.70;99.90;;;;;;5042488;28;20064;-59
2023/07/06 07:12:07;;;;;;;25.60;23.40;;;21.20;34.00;;;;;;5024494;28;20069;-59
2023/07/06 07:14:33;;;;;;;20.88;18.85;;;20.90;1.00;;;;;;5036704;28;20116;-59
2023/07/06 07:16:59;;;;;;;24.35;21.83;;;21.00;99.90;;;;;;5049079;28;20780;-59
2023/07/06 07:19:25;;;;;;;20.52;18.70;;;21.10;99.90;;;;;;5048563;28;20041;-59
2023/07/06 07:21:51;;;;;;;21.73;19.92;;;21.30;1.00;;;;;;5030324;28;20092;-60
2023/07/06 07:24:17;;;;;;;22.13;20.23;;;21.30;1.00;;;;;;5029152;28;20041;-59
2023/07/06 07:26:43;;;;;;;18.92;17.52;;;21.40;99.90;;;;;;5030032;28;20124;-60
2023/07/06 07:29:09;;;;;;;23.45;21.48;;;21.60;99.90;;;;;;5036995;28;20084;-59
2023/07/06 07:31:35;;;;;;;25.73;23.23;;;21.70;99.90;;;;;;5039070;28;20515;-59
2023/07/06 07:34:00;;;;;;;19.02;17.25;;;22.00;99.90;;;;;;5030201;28;20454;-60
2023/07/06 07:36:26;;;;;;;19.50;17.75;;;22.10;99.90;;;;;;5029945;28;20045;-60
2023/07/06 07:38:53;;;;;;;23.08;21.10;;;22.20;99.90;;;;;;5030022;28;20050;-60
2023/07/06 07:41:19;;;;;;;24.33;22.15;;;22.40;1.00;;;;;;5029924;28;20483;-60
2023/07/06 07:43:47;;;;;;;19.13;17.65;;;22.90;1.00;;;;;;5020226;28;20046;-59
2023/07/06 07:46:15;;;;;;;23.33;21.42;;;22.60;1.00;;;;;;5026564;28;20044;-60
2023/07/06 07:48:45;;;;;;;22.92;21.00;;;22.60;99.90;;;;;;5010264;28;20037;-60
2023/07/06 07:51:17;;;;;;;24.13;22.13;;;22.60;1.00;;;;;;5016538;28;20049;-59
2023/07/06 07:53:44;;;;;;;26.42;24.02;;;22.60;1.00;;;;;;5014774;28;20482;-60
2023/07/06 07:56:11;;;;;;;24.95;22.58;;;22.70;1.00;;;;;;5012802;28;20050;-61
2023/07/06 07:58:37;;;;;;;26.15;23.85;;;22.70;1.00;;;;;;5031560;28;20438;-60
2023/07/06 08:01:09;;;;;;;26.60;24.02;;;22.80;1.00;;;;;;5022151;28;20040;-60
2023/07/06 08:03:36;;;;;;;26.60;24.15;;;22.90;99.90;;;;;;5029718;28;20155;-60
2023/07/06 08:06:05;;;;;;;30.63;27.85;;;23.00;1.00;;;;;;5029815;28;20056;-60
2023/07/06 08:08:33;;;;;;;28.92;25.73;;;23.20;1.00;;;;;;5014303;28;20045;-60
2023/07/06 08:11:04;;;;;;;26.90;24.60;;;23.20;99.90;;;;;;5018088;28;20472;-60
2023/07/06 08:13:30;;;;;;;28.73;25.92;;;23.10;99.90;;;;;;5022488;28;20053;-60
2023/07/06 08:15:55;;;;;;;26.90;24.35;;;22.80;99.90;;;;;;5029774;28;20046;-60
2023/07/06 08:18:24;;;;;;;26.95;24.17;;;22.60;99.90;;;;;;5029713;28;20041;-59
2023/07/06 08:20:53;;;;;;;27.90;25.42;;;22.40;99.90;;;;;;5014949;28;20458;-60
2023/07/06 08:23:20;;;;;;;27.20;24.77;;;22.30;99.90;;;;;;5010174;28;20084;-60
2023/07/06 08:25:48;;;;;;;29.30;26.77;;;22.30;99.90;;;;;;5017385;28;20072;-59
2023/07/06 08:28:13;;;;;;;27.95;25.27;;;22.20;99.90;;;;;;5041133;28;20049;-60
2023/07/06 08:30:41;;;;;;;25.02;23.13;;;22.20;99.90;;;;;;5042821;28;20478;-60
2023/07/06 08:33:09;;;;;;;29.13;26.55;;;22.00;99.90;;;;;;5032420;28;20084;-61
2023/07/06 08:35:39;;;;;;;32.13;29.02;;;22.10;99.90;;;;;;5033425;28;20545;-60
2023/07/06 08:38:05;;;;;;;26.30;24.17;;;22.10;99.90;;;;;;5033534;28;20452;-60
2023/07/06 08:40:31;;;;;;;26.55;24.23;;;22.40;99.90;;;;;;5033532;28;20056;-60
2023/07/06 08:42:59;;;;;;;24.90;22.80;;;22.50;99.90;;;;;;5049073;28;20065;-60
2023/07/06 08:45:31;;;;;;;25.58;23.52;;;22.50;99.90;;;;;;5051697;28;20052;-60
2023/07/06 08:47:56;;;;;;;23.90;21.75;;;22.60;99.90;;;;;;5053239;28;20033;-60
2023/07/06 08:50:29;;;;;;;27.38;24.50;;;22.50;92.70;;;;;;5052921;28;20037;-60
2023/07/06 08:52:56;;;;;;;27.02;24.58;;;22.50;99.90;;;;;;5053385;28;20123;-59
2023/07/06 08:55:22;;;;;;;28.15;25.42;;;22.60;99.90;;;;;;5053085;28;20037;-59
2023/07/06 08:57:49;;;;;;;26.27;24.02;;;22.60;99.90;;;;;;5052458;28;20094;-59
2023/07/06 09:00:24;;;;;;;30.35;27.58;;;22.40;99.90;;;;;;5051548;28;20746;-59
2023/07/06 09:02:54;;;;;;;28.95;26.42;;;22.40;99.90;;;;;;5052729;28;20069;-59
2023/07/06 09:05:20;;;;;;;26.17;24.10;;;22.40;99.90;;;;;;5052842;28;20067;-59
2023/07/06 09:07:46;;;;;;;23.98;22.17;;;22.50;99.90;;;;;;5043794;28;20083;-58
2023/07/06 09:10:25;;;;;;;23.10;21.25;;;22.60;99.90;;;;;;5032887;28;20049;-59
2023/07/06 09:12:53;;;;;;;20.90;19.27;;;22.70;17.40;;;;;;5023245;28;20104;-58
2023/07/06 09:15:28;;;;;;;19.67;17.75;;;22.70;1.00;;;;;;5052725;28;20044;-59
2023/07/06 09:17:59;;;;;;;14.77;13.63;;;22.70;1.00;;;;;;5049181;28;20045;-59
2023/07/06 09:20:26;;;;;;;18.10;16.50;;;22.80;99.90;;;;;;5019754;28;20029;-59
2023/07/06 09:22:53;;;;;;;26.58;24.33;;;22.60;99.90;;;;;;5024508;28;20057;-59
2023/07/06 09:25:26;;;;;;;24.38;22.35;;;22.80;1.00;;;;;;5032822;28;20108;-59
2023/07/06 09:27:55;;;;;;;26.45;23.67;;;22.90;1.00;;;;;;5032372;28;20484;-61
2023/07/06 09:30:30;;;;;;;24.05;21.95;;;23.00;1.00;;;;;;5029961;28;20033;-60
2023/07/06 09:33:06;;;;;;;23.43;21.10;;;23.00;1.00;;;;;;5030744;28;20045;-60
2023/07/06 09:35:35;;;;;;;25.20;23.15;;;23.00;1.00;;;;;;5031907;28;20080;-60
2023/07/06 09:38:03;;;;;;;20.05;18.55;;;23.10;1.00;;;;;;5047559;28;20044;-60
2023/07/06 09:40:30;;;;;;;21.63;19.60;;;23.30;1.00;;;;;;5038482;28;20701;-61
2023/07/06 09:42:56;;;;;;;20.33;18.80;;;23.60;1.00;;;;;;5039680;28;20058;-60
2023/07/06 09:45:27;;;;;;;15.27;13.98;;;23.50;1.00;;;;;;5032592;28;20043;-60
2023/07/06 09:48:07;;;;;;;18.20;16.67;;;23.70;99.90;;;;;;5032335;28;20049;-61
2023/07/06 09:50:44;;;;;;;13.00;11.93;;;23.90;99.90;;;;;;5039142;28;20487;-61
2023/07/06 09:53:17;;;;;;;15.60;14.25;;;23.90;99.90;;;;;;5051895;28;20048;-60
2023/07/06 09:55:42;;;;;;;15.60;14.30;;;23.80;99.90;;;;;;5052334;28;20717;-61
2023/07/06 09:58:20;;;;;;;13.93;12.63;;;23.70;99.90;;;;;;5050850;28;20072;-60
2023/07/06 10:00:56;;;;;;;16.00;14.70;;;23.70;99.90;;;;;;5051543;28;20089;-60
2023/07/06 10:03:43;;;;;;;15.23;12.80;;;23.80;99.90;;;;;;5066612;28;20036;-61
2023/07/06 10:06:34;;;;;;;13.80;12.60;;;23.90;99.90;;;;;;5051965;28;20071;-60
2023/07/06 10:08:59;;;;;;;15.07;13.55;;;24.00;99.90;;;;;;5051678;28;20129;-60
2023/07/06 10:12:01;;;;;;;14.38;13.18;;;23.90;99.90;;;;;;5036479;28;20530;-60
2023/07/06 10:14:48;;;;;;;9.75;8.90;;;23.90;99.30;;;;;;5040605;28;20126;-61
2023/07/06 10:17:34;;;;;;;15.88;14.60;;;24.00;55.50;;;;;;5031609;28;20152;-61
2023/07/06 10:20:23;;;;;;;14.30;13.20;;;24.00;73.80;;;;;;5033094;28;20045;-60
2023/07/06 10:23:20;;;;;;;16.90;15.30;;;24.00;35.00;;;;;;5051652;28;20102;-60
2023/07/06 10:26:09;;;;;;;16.45;15.05;;;24.10;28.00;;;;;;5051334;28;20041;-60
2023/07/06 10:28:46;;;;;;;16.70;14.98;;;23.80;17.50;;;;;;5047979;28;20053;-60
2023/07/06 10:31:16;;;;;;;16.27;15.18;;;23.90;15.70;;;;;;5051392;28;20075;-61
2023/07/06 10:34:12;;;;;;;12.55;11.45;;;24.00;29.70;;;;;;5051195;28;20507;-60
2023/07/06 10:36:38;;;;;;;17.73;15.93;;;24.10;1.00;;;;;;5037118;28;20116;-60
2023/07/06 10:39:42;;;;;;;13.65;12.52;;;24.10;10.50;;;;;;5013346;28;20165;-60
2023/07/06 10:42:20;;;;;;;17.50;16.10;;;24.10;1.00;;;;;;5060541;28;20059;-60
2023/07/06 10:44:50;;;;;;;18.30;16.45;;;24.20;1.00;;;;;;5050453;28;20071;-60
2023/07/06 10:47:44;;;;;;;18.30;16.83;;;24.20;1.00;;;;;;5028869;28;20099;-60
2023/07/06 10:50:31;;;;;;;20.45;18.98;;;24.20;1.00;;;;;;5014923;28;20429;-60
2023/07/06 10:53:03;;;;;;;28.13;26.02;;;24.20;1.00;;;;;;5034328;28;20034;-61
2023/07/06 10:55:34;;;;;;;8.65;7.82;;;24.30;1.00;;;;;;5027229;28;20547;-60
2023/07/06 10:58:26;;;;;;;6.07;3.45;;;24.30;1.00;;;;;;5046169;28;20038;-60
2023/07/06 11:00:53;;;;;;;4.05;2.00;;;24.20;1.00;;;;;;5038750;28;20032;-61
2023/07/06 11:03:23;;;;;;;3.83;2.10;;;24.20;1.00;;;;;;5050641;28;20032;-60
2023/07/06 11:06:05;;;;;;;4.32;1.88;;;24.30;1.00;;;;;;5050108;28;20078;-60
2023/07/06 11:09:08;;;;;;;6.70;2.72;;;24.70;1.00;;;;;;5050518;28;20414;-60
2023/07/06 11:11:49;;;;;;;5.90;2.80;;;24.30;1.00;;;;;;5023467;28;20153;-60
2023/07/06 11:14:33;;;;;;;6.07;2.85;;;24.10;1.00;;;;;;5010390;28;20053;-60
2023/07/06 11:17:35;;;;;;;4.47;2.85;;;24.10;1.00;;;;;;5011884;28;20115;-60
2023/07/06 11:20:23;;;;;;;5.88;4.43;;;24.10;1.00;;;;;;5025758;28;20053;-60
2023/07/06 11:22:55;;;;;;;5.82;3.75;;;24.00;1.00;;;;;;5030427;28;20072;-60
2023/07/06 11:25:21;;;;;;;11.23;6.13;;;24.00;1.00;;;;;;5030565;28;20436;-60
2023/07/06 11:27:53;;;;;;;9.93;8.98;;;23.90;1.00;;;;;;5030188;28;20045;-60
2023/07/06 11:30:28;;;;;;;7.25;5.28;;;23.90;16.90;;;;;;5028920;28;20408;-60
2023/07/06 11:32:54;;;;;;;7.15;3.30;;;23.90;34.30;;;;;;5030359;28;20048;-60
2023/07/06 11:35:45;;;;;;;9.75;3.30;;;23.90;38.70;;;;;;5029991;28;20057;-60
2023/07/06 11:38:38;;;;;;;8.82;5.05;;;23.90;7.30;;;;;;5030303;28;20041;-60
2023/07/06 11:41:35;;;;;;;8.90;6.00;;;23.80;25.10;;;;;;5030290;28;20587;-60
2023/07/06 11:44:28;;;;;;;5.88;4.75;;;23.80;35.20;;;;;;5026411;28;20060;-59
2023/07/06 11:47:11;;;;;;;8.45;3.22;;;23.90;37.50;;;;;;5022827;28;20041;-59
2023/07/06 11:49:51;;;;;;;7.88;3.90;;;23.70;50.90;;;;;;5029947;28;20045;-60
2023/07/06 11:52:25;;;;;;;6.38;5.75;;;23.90;39.70;;;;;;5029918;28;20140;-60
2023/07/06 11:55:18;;;;;;;13.18;9.15;;;23.80;94.90;;;;;;5022340;28;20041;-60
2023/07/06 11:58:04;;;;;;;8.98;7.72;;;23.90;99.90;;;;;;5011062;28;20100;-60
2023/07/06 12:03:03;;;;;;;11.35;5.18;;;23.70;91.80;;;;;;5030104;28;20049;-59
2023/07/06 12:05:34;;;;;;;12.27;10.98;;;23.60;84.70;;;;;;5035531;28;20037;-60
2023/07/06 12:08:03;;;;;;;13.27;9.23;;;23.70;99.90;;;;;;5036521;28;20037;-60
2023/07/06 12:10:32;;;;;;;7.63;6.13;;;23.50;96.80;;;;;;5035642;28;20045;-60
2023/07/06 12:12:58;;;;;;;12.05;10.95;;;23.60;99.90;;;;;;5016484;28;20508;-59
2023/07/06 12:15:24;;;;;;;11.32;5.35;;;23.80;99.90;;;;;;5016770;28;20437;-60
2023/07/06 12:17:56;;;;;;;10.07;6.00;;;23.40;99.90;;;;;;5016604;28;20064;-60
2023/07/06 12:20:25;;;;;;;17.85;16.25;;;23.50;99.90;;;;;;5015362;28;20480;-59
2023/07/06 12:22:57;;;;;;;15.23;13.82;;;23.50;99.90;;;;;;5016619;28;20030;-60
2023/07/06 12:25:30;;;;;;;13.73;12.40;;;23.70;99.90;;;;;;5016479;28;20040;-60
2023/07/06 12:28:00;;;;;;;6.13;4.00;;;23.50;99.90;;;;;;5016624;28;20072;-59
2023/07/06 12:30:33;;;;;;;10.57;8.95;;;23.50;99.90;;;;;;5016904;28;20041;-60
2023/07/06 12:33:13;;;;;;;7.38;3.90;;;23.50;99.20;;;;;;5016781;28;20400;-57
2023/07/06 12:35:40;;;;;;;4.88;3.15;;;23.40;53.20;;;;;;5016685;28;20407;-59
2023/07/06 12:38:12;;;;;;;7.70;5.38;;;23.30;54.20;;;;;;5016456;28;20038;-59
2023/07/06 12:40:38;;;;;;;9.65;3.50;;;23.40;75.60;;;;;;5016787;28;20069;-59
2023/07/06 12:43:04;;;;;;;9.52;4.68;;;23.40;47.90;;;;;;5016578;28;20112;-59
2023/07/06 12:45:32;;;;;;;12.55;7.78;;;23.30;52.70;;;;;;5016747;28;20042;-60
2023/07/06 12:48:00;;;;;;;7.05;3.03;;;23.70;65.20;;;;;;5016123;28;20037;-60
2023/07/06 12:50:35;;;;;;;8.35;3.53;;;23.40;33.10;;;;;;5025003;28;20029;-60